Pittsfield, New Hampshire
Current Conditions -  °F | °C
As of 2:39 AM on Thursday 23 Oct 2014 (Local Time) from KCON Reporting Station
Light Rain Light Rain  
Wind Chill: 41°   Ceiling: 1400
Heat Index: 47°   Visibility: 5mi
Dew Point: 44°   Wind: 13mph
Humidity: 90%   Direction: 20°NNE
Pressure: 29.87"   Gusts: 22mph
Location:  43.31°N, 71.32°W
Report Text: KCON 230639Z AUTO 02011G19KT 5SM -RA BR OVC014 08/07 A2987 RMK AO2 P0003 T00830067
Loading
Personal Weather Stations






























Interactive Weather Map
Tropical Storm Tracking
New forecast layout! Learn more

10-Day Weather Forecast

Advertisements
Track Severe Weather on mobile